AFR127 NTAA-CYYZ
Flight info
| Callsign | AFR127 |
|---|---|
| Flight time | N/A |
| Altitude | 35000 |
| Route | NTAA/04 N0501F350 IKEL4E IKELO DCT ORARE G575 RUTAK/N0497F370 G575 BIGBY/N0488F390 G575 FICKY C1177 SXC DCT PDZ J60 CIVET J107 RESOR J64 HEC DCT NATEE Q74 ZAINY/N0482F410 Q114 LEONG DCT DSM J10 IOW J146 GIJ J554 CRL DCT QWERI NUBER6 CYYZ/33R |
| Aircraft | A359/H-SDE2E3GHIJ1J3J4J5LM1ORWXYZ/LB1D1 |
Departure
| Time | 2026-05-09 23:49 |
|---|---|
| Airport | Fa'a'ā International Airport (NTAA) |
Arrival
| Time | N/A |
|---|---|
| Airport | Toronto Pearson International Airport (CYYZ) |
| Time | Latitude | Longitude | Altitude | Speed | Heading |
|---|---|---|---|---|---|
| 2026-05-09 22:48 | -17.55813 | -149.60960 | 34 ft | 0 kts | 145° |
| 2026-05-09 23:35 | -17.55811 | -149.60962 | 33 ft | 1 kts | 145° |
| 2026-05-09 23:36 | -17.55799 | -149.60971 | 32 ft | 2 kts | 145° |
| 2026-05-09 23:36 | -17.55786 | -149.60980 | 32 ft | 2 kts | 145° |
| 2026-05-09 23:36 | -17.55774 | -149.60988 | 32 ft | 2 kts | 145° |
| 2026-05-09 23:36 | -17.55761 | -149.60997 | 32 ft | 2 kts | 145° |
| 2026-05-09 23:37 | -17.55752 | -149.61005 | 32 ft | 1 kts | 181° |
| 2026-05-09 23:37 | -17.55742 | -149.61000 | 32 ft | 0 kts | 233° |
| 2026-05-09 23:37 | -17.55738 | -149.60996 | 32 ft | 0 kts | 236° |
| 2026-05-09 23:42 | -17.55742 | -149.61000 | 32 ft | 2 kts | 232° |
| 2026-05-09 23:42 | -17.55761 | -149.61029 | 32 ft | 5 kts | 246° |
| 2026-05-09 23:42 | -17.55759 | -149.61063 | 31 ft | 0 kts | 297° |
| 2026-05-09 23:43 | -17.55754 | -149.61070 | 31 ft | 2 kts | 306° |
| 2026-05-09 23:43 | -17.55731 | -149.61095 | 30 ft | 6 kts | 319° |
| 2026-05-09 23:43 | -17.55692 | -149.61130 | 29 ft | 8 kts | 309° |
| 2026-05-09 23:44 | -17.55697 | -149.61195 | 28 ft | 10 kts | 236° |
| 2026-05-09 23:44 | -17.55741 | -149.61261 | 28 ft | 11 kts | 234° |
| 2026-05-09 23:44 | -17.55792 | -149.61336 | 27 ft | 13 kts | 234° |
| 2026-05-09 23:45 | -17.55917 | -149.61516 | 24 ft | 17 kts | 234° |
| 2026-05-09 23:45 | -17.55990 | -149.61623 | 22 ft | 19 kts | 234° |
| 2026-05-09 23:45 | -17.56069 | -149.61737 | 20 ft | 16 kts | 234° |
| 2026-05-09 23:45 | -17.56127 | -149.61821 | 19 ft | 13 kts | 234° |
| 2026-05-09 23:46 | -17.56174 | -149.61893 | 19 ft | 11 kts | 237° |
| 2026-05-09 23:46 | -17.56202 | -149.61964 | 18 ft | 8 kts | 260° |
| 2026-05-09 23:46 | -17.56209 | -149.62003 | 18 ft | 2 kts | 242° |
| 2026-05-09 23:46 | -17.56229 | -149.62012 | 18 ft | 1 kts | 188° |
| 2026-05-09 23:47 | -17.56240 | -149.62003 | 18 ft | 2 kts | 121° |
| 2026-05-09 23:47 | -17.56238 | -149.61984 | 18 ft | 2 kts | 63° |
| 2026-05-09 23:47 | -17.56237 | -149.61983 | 18 ft | 0 kts | 58° |
| 2026-05-09 23:48 | -17.56199 | -149.61923 | 18 ft | 35 kts | 55° |
| 2026-05-09 23:48 | -17.55923 | -149.61522 | 24 ft | 99 kts | 54° |
| 2026-05-09 23:48 | -17.55402 | -149.60771 | 23 ft | 153 kts | 55° |
| 2026-05-09 23:49 | -17.53945 | -149.58820 | 926 ft | 174 kts | 39° |
| 2026-05-09 23:49 | -17.52776 | -149.58525 | 1513 ft | 182 kts | 1° |
| 2026-05-09 23:49 | -17.51513 | -149.58719 | 1969 ft | 185 kts | 357° |
| 2026-05-09 23:49 | -17.50225 | -149.58948 | 2347 ft | 191 kts | 358° |
| 2026-05-09 23:50 | -17.48857 | -149.59151 | 2635 ft | 204 kts | 359° |
| 2026-05-09 23:50 | -17.47388 | -149.59334 | 2916 ft | 219 kts | 359° |
| 2026-05-09 23:50 | -17.45827 | -149.59508 | 3334 ft | 229 kts | 359° |
| 2026-05-09 23:50 | -17.44235 | -149.59679 | 3930 ft | 232 kts | 359° |
| 2026-05-09 23:51 | -17.42629 | -149.59845 | 4534 ft | 234 kts | 359° |
| 2026-05-09 23:51 | -17.41011 | -149.60008 | 5130 ft | 236 kts | 358° |
| 2026-05-09 23:51 | -17.39369 | -149.60173 | 5710 ft | 239 kts | 358° |
| 2026-05-09 23:51 | -17.37693 | -149.60341 | 6289 ft | 242 kts | 358° |
| 2026-05-09 23:52 | -17.36024 | -149.60504 | 6842 ft | 245 kts | 358° |
| 2026-05-09 23:52 | -17.34315 | -149.60672 | 7389 ft | 248 kts | 357° |
| 2026-05-09 23:52 | -17.32579 | -149.60844 | 7919 ft | 252 kts | 357° |
| 2026-05-09 23:52 | -17.30822 | -149.61018 | 8443 ft | 255 kts | 356° |
| 2026-05-09 23:53 | -17.29032 | -149.61133 | 8944 ft | 258 kts | 8° |
| 2026-05-09 23:53 | -17.27374 | -149.60506 | 9407 ft | 257 kts | 38° |
| 2026-05-09 23:53 | -17.25956 | -149.59320 | 9758 ft | 267 kts | 41° |
| 2026-05-09 23:53 | -17.24484 | -149.58050 | 10032 ft | 281 kts | 41° |
| 2026-05-09 23:54 | -17.22913 | -149.56703 | 10304 ft | 295 kts | 41° |
| 2026-05-09 23:54 | -17.21283 | -149.55316 | 10566 ft | 309 kts | 40° |
| 2026-05-09 23:54 | -17.19590 | -149.53883 | 10822 ft | 322 kts | 40° |
| 2026-05-09 23:54 | -17.17809 | -149.52382 | 11075 ft | 335 kts | 40° |
| 2026-05-09 23:55 | -17.15944 | -149.50812 | 11324 ft | 348 kts | 40° |
| 2026-05-09 23:55 | -17.14021 | -149.49196 | 11563 ft | 360 kts | 40° |
| 2026-05-09 23:55 | -17.12049 | -149.47540 | 11788 ft | 372 kts | 40° |
| 2026-05-09 23:55 | -17.09981 | -149.45805 | 12016 ft | 384 kts | 40° |
| 2026-05-09 23:56 | -17.07857 | -149.44023 | 12307 ft | 393 kts | 40° |
| 2026-05-09 23:56 | -17.05727 | -149.42238 | 12766 ft | 396 kts | 40° |
| 2026-05-09 23:56 | -17.03569 | -149.40430 | 13224 ft | 400 kts | 40° |
| 2026-05-09 23:56 | -17.01383 | -149.38597 | 13665 ft | 403 kts | 40° |
| 2026-05-09 23:57 | -16.99196 | -149.36765 | 14120 ft | 406 kts | 40° |
| 2026-05-09 23:57 | -16.96989 | -149.34914 | 14577 ft | 408 kts | 40° |
| 2026-05-09 23:57 | -16.94764 | -149.33038 | 15016 ft | 411 kts | 40° |
| 2026-05-09 23:57 | -16.92529 | -149.31152 | 15448 ft | 413 kts | 40° |
| 2026-05-09 23:58 | -16.90316 | -149.29291 | 15862 ft | 415 kts | 40° |
| 2026-05-09 23:58 | -16.88040 | -149.27388 | 16289 ft | 417 kts | 39° |
| 2026-05-09 23:58 | -16.85768 | -149.25499 | 16703 ft | 419 kts | 40° |
| 2026-05-09 23:58 | -16.83469 | -149.23585 | 17105 ft | 421 kts | 40° |
| 2026-05-09 23:59 | -16.81177 | -149.21674 | 17494 ft | 424 kts | 40° |
| 2026-05-09 23:59 | -16.78895 | -149.19690 | 17869 ft | 426 kts | 42° |
| 2026-05-09 23:59 | -16.76663 | -149.17682 | 18230 ft | 428 kts | 42° |
| 2026-05-09 23:59 | -16.74411 | -149.15649 | 18586 ft | 431 kts | 41° |
| 2026-05-10 00:00 | -16.72141 | -149.13600 | 18937 ft | 433 kts | 42° |
| 2026-05-10 00:00 | -16.69835 | -149.11519 | 19286 ft | 435 kts | 41° |
| 2026-05-10 00:00 | -16.67559 | -149.09465 | 19615 ft | 438 kts | 41° |
| 2026-05-10 00:00 | -16.65245 | -149.07378 | 19932 ft | 441 kts | 41° |
| 2026-05-10 00:01 | -16.62915 | -149.05278 | 20246 ft | 443 kts | 41° |
| 2026-05-10 00:01 | -16.60582 | -149.03175 | 20553 ft | 446 kts | 41° |
| 2026-05-10 00:01 | -16.58216 | -149.01045 | 20852 ft | 449 kts | 41° |
| 2026-05-10 00:01 | -16.55839 | -148.98906 | 21151 ft | 451 kts | 41° |
| 2026-05-10 00:02 | -16.53486 | -148.96786 | 21452 ft | 453 kts | 41° |
| 2026-05-10 00:02 | -16.51083 | -148.94624 | 21758 ft | 455 kts | 41° |
| 2026-05-10 00:02 | -16.48663 | -148.92447 | 22043 ft | 458 kts | 41° |
| 2026-05-10 00:02 | -16.46267 | -148.90292 | 22304 ft | 460 kts | 41° |
| 2026-05-10 00:03 | -16.43834 | -148.88104 | 22574 ft | 463 kts | 41° |
| 2026-05-10 00:03 | -16.41384 | -148.85904 | 22862 ft | 465 kts | 40° |
| 2026-05-10 00:03 | -16.38941 | -148.83708 | 23145 ft | 467 kts | 40° |
| 2026-05-10 00:03 | -16.36455 | -148.81477 | 23440 ft | 469 kts | 40° |
| 2026-05-10 00:04 | -16.33997 | -148.79271 | 23731 ft | 470 kts | 40° |
| 2026-05-10 00:04 | -16.31517 | -148.77045 | 23986 ft | 473 kts | 40° |
| 2026-05-10 00:04 | -16.29020 | -148.74806 | 24234 ft | 475 kts | 40° |
| 2026-05-10 00:04 | -16.26499 | -148.72546 | 24493 ft | 477 kts | 40° |
| 2026-05-10 00:05 | -16.23972 | -148.70281 | 24751 ft | 479 kts | 40° |
| 2026-05-10 00:05 | -16.21462 | -148.68031 | 24995 ft | 481 kts | 40° |
| 2026-05-10 00:05 | -16.18895 | -148.65733 | 25257 ft | 482 kts | 40° |
| 2026-05-10 00:05 | -16.16367 | -148.63469 | 25480 ft | 484 kts | 40° |
| 2026-05-10 00:06 | -16.13798 | -148.61169 | 25704 ft | 486 kts | 40° |
| 2026-05-10 00:06 | -16.11252 | -148.58891 | 25934 ft | 488 kts | 39° |
| 2026-05-10 00:06 | -16.08664 | -148.56575 | 26157 ft | 490 kts | 39° |
| 2026-05-10 00:06 | -16.06090 | -148.54272 | 26371 ft | 491 kts | 39° |
| 2026-05-10 00:07 | -16.03492 | -148.51950 | 26600 ft | 493 kts | 39° |
| 2026-05-10 00:07 | -16.00874 | -148.49609 | 26811 ft | 494 kts | 39° |
| 2026-05-10 00:07 | -15.98277 | -148.47286 | 27012 ft | 496 kts | 39° |
| 2026-05-10 00:07 | -15.95632 | -148.44923 | 27207 ft | 498 kts | 39° |
| 2026-05-10 00:08 | -15.93013 | -148.42586 | 27406 ft | 499 kts | 39° |
| 2026-05-10 00:08 | -15.90335 | -148.40288 | 27598 ft | 500 kts | 37° |
| 2026-05-10 00:08 | -15.87565 | -148.38124 | 27810 ft | 500 kts | 35° |
| 2026-05-10 00:08 | -15.84747 | -148.35969 | 27992 ft | 502 kts | 35° |
| 2026-05-10 00:09 | -15.81939 | -148.33826 | 28160 ft | 503 kts | 34° |
| 2026-05-10 00:09 | -15.79097 | -148.31639 | 28327 ft | 505 kts | 35° |
| 2026-05-10 00:09 | -15.76295 | -148.29480 | 28501 ft | 506 kts | 35° |
| 2026-05-10 00:09 | -15.73448 | -148.27286 | 28685 ft | 507 kts | 34° |
| 2026-05-10 00:10 | -15.70614 | -148.25105 | 28930 ft | 507 kts | 34° |
| 2026-05-10 00:10 | -15.67786 | -148.22932 | 29194 ft | 506 kts | 34° |
| 2026-05-10 00:10 | -15.64978 | -148.20778 | 29430 ft | 506 kts | 35° |
| 2026-05-10 00:10 | -15.62119 | -148.18585 | 29656 ft | 506 kts | 35° |
| 2026-05-10 00:11 | -15.59300 | -148.16425 | 29889 ft | 505 kts | 35° |
| 2026-05-10 00:11 | -15.56482 | -148.14264 | 30122 ft | 505 kts | 35° |
| 2026-05-10 00:11 | -15.53642 | -148.12088 | 30359 ft | 505 kts | 34° |
| 2026-05-10 00:11 | -15.50820 | -148.09927 | 30562 ft | 505 kts | 35° |
| 2026-05-10 00:12 | -15.48004 | -148.07771 | 30772 ft | 505 kts | 35° |
| 2026-05-10 00:12 | -15.45159 | -148.05594 | 30990 ft | 505 kts | 35° |
| 2026-05-10 00:12 | -15.42359 | -148.03451 | 31202 ft | 505 kts | 35° |
| 2026-05-10 00:12 | -15.39539 | -148.01296 | 31447 ft | 504 kts | 35° |
| 2026-05-10 00:13 | -15.36713 | -147.99136 | 31671 ft | 503 kts | 35° |
| 2026-05-10 00:13 | -15.33883 | -147.96974 | 31878 ft | 503 kts | 35° |
| 2026-05-10 00:13 | -15.31051 | -147.94810 | 32087 ft | 503 kts | 35° |
| 2026-05-10 00:13 | -15.28221 | -147.92648 | 32292 ft | 503 kts | 35° |
| 2026-05-10 00:14 | -15.25431 | -147.90518 | 32479 ft | 503 kts | 35° |
| 2026-05-10 00:14 | -15.22599 | -147.88356 | 32677 ft | 503 kts | 35° |
| 2026-05-10 00:14 | -15.19785 | -147.86208 | 32853 ft | 503 kts | 35° |
| 2026-05-10 00:14 | -15.16962 | -147.84055 | 33025 ft | 504 kts | 35° |
| 2026-05-10 00:15 | -15.14142 | -147.81906 | 33194 ft | 504 kts | 35° |
| 2026-05-10 00:15 | -15.11307 | -147.79746 | 33358 ft | 505 kts | 35° |
| 2026-05-10 00:15 | -15.08485 | -147.77593 | 33529 ft | 505 kts | 35° |
| 2026-05-10 00:15 | -15.05657 | -147.75438 | 33675 ft | 505 kts | 35° |
| 2026-05-10 00:16 | -15.02802 | -147.73265 | 33820 ft | 506 kts | 35° |
| 2026-05-10 00:16 | -14.99985 | -147.71121 | 33972 ft | 506 kts | 35° |
| 2026-05-10 00:16 | -14.97087 | -147.68974 | 34140 ft | 505 kts | 33° |
| 2026-05-10 00:16 | -14.94141 | -147.67015 | 34306 ft | 504 kts | 30° |
| 2026-05-10 00:17 | -14.91103 | -147.65225 | 34440 ft | 504 kts | 26° |
| 2026-05-10 00:17 | -14.84846 | -147.61864 | 34621 ft | 505 kts | 26° |
| 2026-05-10 00:18 | -14.78586 | -147.58528 | 34794 ft | 507 kts | 26° |
| 2026-05-10 00:18 | -14.75433 | -147.56842 | 34895 ft | 507 kts | 26° |
| 2026-05-10 00:18 | -14.72273 | -147.55147 | 34883 ft | 508 kts | 26° |
| 2026-05-10 00:19 | -14.65982 | -147.51770 | 34900 ft | 508 kts | 26° |
| 2026-05-10 00:19 | -14.59714 | -147.48406 | 34895 ft | 508 kts | 26° |
| 2026-05-10 00:20 | -14.53426 | -147.45030 | 34900 ft | 508 kts | 26° |
| 2026-05-10 00:20 | -14.47152 | -147.41664 | 34896 ft | 507 kts | 26° |
| 2026-05-10 00:21 | -14.40884 | -147.38304 | 34896 ft | 508 kts | 26° |
| 2026-05-10 00:21 | -14.34621 | -147.34949 | 34893 ft | 509 kts | 25° |
| 2026-05-10 00:22 | -14.28349 | -147.31563 | 34895 ft | 509 kts | 26° |
| 2026-05-10 00:22 | -14.22023 | -147.28154 | 34892 ft | 509 kts | 26° |
| 2026-05-10 00:23 | -14.15745 | -147.24786 | 34894 ft | 509 kts | 25° |
| 2026-05-10 00:23 | -14.09483 | -147.21439 | 34895 ft | 509 kts | 25° |
| 2026-05-10 00:24 | -14.03174 | -147.18068 | 34899 ft | 509 kts | 26° |
| 2026-05-10 00:24 | -13.96893 | -147.14716 | 34904 ft | 509 kts | 25° |
| 2026-05-10 00:25 | -13.90582 | -147.11350 | 34904 ft | 509 kts | 25° |
| 2026-05-10 00:25 | -13.84288 | -147.08008 | 34903 ft | 510 kts | 25° |
| 2026-05-10 00:26 | -13.77942 | -147.04640 | 34904 ft | 510 kts | 26° |
| 2026-05-10 00:26 | -13.71649 | -147.01297 | 34898 ft | 510 kts | 26° |
| 2026-05-10 00:27 | -13.65323 | -146.97932 | 34900 ft | 510 kts | 26° |
| 2026-05-10 00:27 | -13.59009 | -146.94574 | 34899 ft | 511 kts | 26° |
| 2026-05-10 00:28 | -13.52695 | -146.91219 | 34896 ft | 511 kts | 26° |
| 2026-05-10 00:28 | -13.46402 | -146.87877 | 34895 ft | 511 kts | 26° |
| 2026-05-10 00:29 | -13.40075 | -146.84518 | 34885 ft | 511 kts | 26° |
| 2026-05-10 00:29 | -13.33750 | -146.81165 | 34886 ft | 512 kts | 26° |
| 2026-05-10 00:30 | -13.27413 | -146.77803 | 34881 ft | 512 kts | 26° |
| 2026-05-10 00:30 | -13.21055 | -146.74435 | 34885 ft | 512 kts | 26° |
| 2026-05-10 00:31 | -13.14708 | -146.71075 | 34881 ft | 512 kts | 26° |
| 2026-05-10 00:31 | -13.08387 | -146.67729 | 34887 ft | 512 kts | 26° |
| 2026-05-10 00:32 | -13.02053 | -146.64380 | 34882 ft | 513 kts | 26° |
| 2026-05-10 00:32 | -12.95697 | -146.61020 | 34885 ft | 513 kts | 26° |
| 2026-05-10 00:33 | -12.89370 | -146.57677 | 34885 ft | 513 kts | 26° |
| 2026-05-10 00:33 | -12.82997 | -146.54327 | 34883 ft | 513 kts | 26° |
| 2026-05-10 00:34 | -12.76664 | -146.50998 | 34888 ft | 512 kts | 26° |
| 2026-05-10 00:34 | -12.70285 | -146.47638 | 34885 ft | 513 kts | 26° |
| 2026-05-10 00:35 | -12.63943 | -146.44296 | 34887 ft | 513 kts | 26° |
| 2026-05-10 00:35 | -12.57601 | -146.40955 | 34884 ft | 513 kts | 26° |
| 2026-05-10 00:36 | -12.51248 | -146.37610 | 34887 ft | 512 kts | 26° |
| 2026-05-10 00:36 | -12.44882 | -146.34259 | 34882 ft | 512 kts | 26° |
| 2026-05-10 00:37 | -12.38570 | -146.30907 | 34888 ft | 512 kts | 26° |
| 2026-05-10 00:37 | -12.32234 | -146.27554 | 34882 ft | 512 kts | 26° |
| 2026-05-10 00:38 | -12.25910 | -146.24225 | 34887 ft | 511 kts | 26° |
| 2026-05-10 00:38 | -12.19566 | -146.20892 | 34884 ft | 512 kts | 26° |
| 2026-05-10 00:39 | -12.13228 | -146.17566 | 34886 ft | 512 kts | 26° |
| 2026-05-10 00:39 | -12.06889 | -146.14239 | 34884 ft | 511 kts | 25° |
| 2026-05-10 00:40 | -12.00549 | -146.10918 | 34885 ft | 511 kts | 25° |
| 2026-05-10 00:40 | -11.94233 | -146.07608 | 34885 ft | 510 kts | 25° |
| 2026-05-10 00:41 | -11.87881 | -146.04285 | 34887 ft | 510 kts | 25° |
| 2026-05-10 00:41 | -11.81574 | -146.01000 | 34883 ft | 511 kts | 25° |
| 2026-05-10 00:42 | -11.72078 | -145.96045 | 34883 ft | 510 kts | 25° |
| 2026-05-10 00:42 | -11.65731 | -145.92729 | 34882 ft | 511 kts | 25° |
| 2026-05-10 00:43 | -11.59401 | -145.89423 | 34884 ft | 510 kts | 25° |
| 2026-05-10 00:43 | -11.53069 | -145.86116 | 34883 ft | 510 kts | 25° |
| 2026-05-10 00:44 | -11.46766 | -145.82826 | 34876 ft | 510 kts | 25° |
| 2026-05-10 00:44 | -11.40440 | -145.79527 | 34877 ft | 509 kts | 25° |
| 2026-05-10 00:45 | -11.34132 | -145.76237 | 34873 ft | 510 kts | 26° |
| 2026-05-10 00:45 | -11.27804 | -145.72940 | 34868 ft | 509 kts | 26° |
| 2026-05-10 00:46 | -11.21476 | -145.69644 | 34863 ft | 510 kts | 25° |
| 2026-05-10 00:46 | -11.15183 | -145.66368 | 34864 ft | 510 kts | 25° |
| 2026-05-10 00:47 | -11.08838 | -145.63066 | 34860 ft | 509 kts | 25° |
| 2026-05-10 00:47 | -11.02528 | -145.59784 | 34867 ft | 509 kts | 25° |
| 2026-05-10 00:48 | -10.96218 | -145.56505 | 34862 ft | 509 kts | 26° |
| 2026-05-10 00:48 | -10.89908 | -145.53226 | 34866 ft | 509 kts | 26° |
| 2026-05-10 00:49 | -10.83583 | -145.49956 | 34864 ft | 509 kts | 25° |
| 2026-05-10 00:49 | -10.77276 | -145.46692 | 34865 ft | 510 kts | 26° |
| 2026-05-10 00:50 | -10.70923 | -145.43399 | 34863 ft | 510 kts | 25° |
| 2026-05-10 00:50 | -10.64604 | -145.40123 | 34865 ft | 510 kts | 26° |
| 2026-05-10 00:51 | -10.58296 | -145.36853 | 34864 ft | 509 kts | 26° |
| 2026-05-10 00:51 | -10.51951 | -145.33557 | 34864 ft | 509 kts | 25° |
| 2026-05-10 00:52 | -10.45684 | -145.30280 | 34862 ft | 509 kts | 25° |
| 2026-05-10 00:52 | -10.39334 | -145.26978 | 34863 ft | 509 kts | 25° |
| 2026-05-10 00:53 | -10.33026 | -145.23711 | 34865 ft | 509 kts | 25° |
| 2026-05-10 00:53 | -10.26701 | -145.20441 | 34868 ft | 509 kts | 25° |
| 2026-05-10 00:54 | -10.20374 | -145.17171 | 34867 ft | 509 kts | 25° |
| 2026-05-10 00:54 | -10.14073 | -145.13916 | 34869 ft | 508 kts | 25° |
| 2026-05-10 00:55 | -10.07774 | -145.10663 | 34868 ft | 508 kts | 25° |
| 2026-05-10 00:55 | -10.01453 | -145.07400 | 34870 ft | 508 kts | 25° |
| 2026-05-10 00:56 | -9.95134 | -145.04134 | 34879 ft | 508 kts | 25° |
| 2026-05-10 00:56 | -9.88866 | -145.00885 | 34885 ft | 509 kts | 25° |
| 2026-05-10 00:57 | -9.82538 | -144.97623 | 34884 ft | 509 kts | 25° |
| 2026-05-10 00:57 | -9.76215 | -144.94363 | 34884 ft | 509 kts | 25° |
| 2026-05-10 00:58 | -9.69872 | -144.91087 | 34878 ft | 509 kts | 25° |
| 2026-05-10 00:58 | -9.63578 | -144.87834 | 34881 ft | 509 kts | 25° |
| 2026-05-10 00:59 | -9.57280 | -144.84581 | 34877 ft | 509 kts | 25° |
| 2026-05-10 00:59 | -9.50946 | -144.81311 | 34881 ft | 508 kts | 25° |
| 2026-05-10 01:00 | -9.44658 | -144.78065 | 34884 ft | 509 kts | 25° |
| 2026-05-10 01:00 | -9.38303 | -144.74788 | 34878 ft | 510 kts | 25° |
| 2026-05-10 01:01 | -9.31984 | -144.71530 | 34872 ft | 510 kts | 25° |
| 2026-05-10 01:01 | -9.25665 | -144.68272 | 34864 ft | 510 kts | 25° |
| 2026-05-10 01:02 | -9.19327 | -144.65007 | 34863 ft | 509 kts | 26° |
| 2026-05-10 01:02 | -9.12999 | -144.61746 | 34861 ft | 510 kts | 25° |
| 2026-05-10 01:03 | -9.06654 | -144.58479 | 34864 ft | 510 kts | 25° |
| 2026-05-10 01:03 | -9.00343 | -144.55231 | 34860 ft | 510 kts | 25° |
| 2026-05-10 01:04 | -8.94005 | -144.51970 | 34864 ft | 511 kts | 25° |
| 2026-05-10 01:04 | -8.87673 | -144.48717 | 34861 ft | 511 kts | 25° |
| 2026-05-10 01:05 | -8.81322 | -144.45470 | 34865 ft | 511 kts | 25° |
| 2026-05-10 01:05 | -8.74985 | -144.42221 | 34864 ft | 511 kts | 25° |
| 2026-05-10 01:06 | -8.68638 | -144.38962 | 34865 ft | 510 kts | 25° |
| 2026-05-10 01:06 | -8.62286 | -144.35702 | 34861 ft | 509 kts | 25° |
| 2026-05-10 01:07 | -8.55996 | -144.32455 | 34865 ft | 509 kts | 26° |
| 2026-05-10 01:07 | -8.49681 | -144.29185 | 34864 ft | 510 kts | 25° |
| 2026-05-10 01:08 | -8.43348 | -144.25925 | 34865 ft | 510 kts | 25° |
| 2026-05-10 01:08 | -8.36998 | -144.22667 | 34866 ft | 509 kts | 25° |
| 2026-05-10 01:09 | -8.30667 | -144.19420 | 34866 ft | 510 kts | 25° |
| 2026-05-10 01:09 | -8.24383 | -144.16202 | 34863 ft | 509 kts | 25° |
| 2026-05-10 01:10 | -8.18013 | -144.12938 | 34864 ft | 508 kts | 25° |
| 2026-05-10 01:10 | -8.11709 | -144.09711 | 34865 ft | 508 kts | 25° |
| 2026-05-10 01:11 | -8.05382 | -144.06473 | 34865 ft | 508 kts | 25° |
| 2026-05-10 01:11 | -7.99098 | -144.03258 | 34865 ft | 508 kts | 25° |
| 2026-05-10 01:12 | -7.92758 | -144.00017 | 34863 ft | 509 kts | 25° |
| 2026-05-10 01:12 | -7.86459 | -143.96802 | 34865 ft | 508 kts | 25° |
| 2026-05-10 01:13 | -7.80128 | -143.93581 | 34866 ft | 507 kts | 25° |
| 2026-05-10 01:13 | -7.73803 | -143.90358 | 34863 ft | 507 kts | 25° |
| 2026-05-10 01:14 | -7.67519 | -143.87151 | 34861 ft | 507 kts | 25° |
| 2026-05-10 01:14 | -7.61233 | -143.83940 | 34860 ft | 507 kts | 25° |
| 2026-05-10 01:15 | -7.54919 | -143.80719 | 34856 ft | 507 kts | 25° |
| 2026-05-10 01:15 | -7.48609 | -143.77499 | 34853 ft | 506 kts | 25° |
| 2026-05-10 01:16 | -7.42303 | -143.74283 | 34848 ft | 507 kts | 25° |
| 2026-05-10 01:16 | -7.36009 | -143.71074 | 34844 ft | 507 kts | 25° |
| 2026-05-10 01:17 | -7.29711 | -143.67864 | 34844 ft | 507 kts | 25° |
| 2026-05-10 01:17 | -7.23436 | -143.64667 | 34846 ft | 507 kts | 25° |
| 2026-05-10 01:18 | -7.17115 | -143.61446 | 34847 ft | 507 kts | 25° |
| 2026-05-10 01:18 | -7.10829 | -143.58246 | 34846 ft | 506 kts | 26° |
| 2026-05-10 01:19 | -7.04519 | -143.55032 | 34848 ft | 506 kts | 25° |
| 2026-05-10 01:19 | -6.98245 | -143.51839 | 34848 ft | 506 kts | 25° |
| 2026-05-10 01:20 | -6.91974 | -143.48648 | 34850 ft | 505 kts | 25° |
| 2026-05-10 01:20 | -6.85685 | -143.45459 | 34858 ft | 505 kts | 25° |
| 2026-05-10 01:21 | -6.79389 | -143.42271 | 34861 ft | 505 kts | 25° |
| 2026-05-10 01:21 | -6.73120 | -143.39090 | 34863 ft | 505 kts | 25° |
| 2026-05-10 01:22 | -6.66861 | -143.35912 | 34866 ft | 504 kts | 25° |
| 2026-05-10 01:22 | -6.60580 | -143.32704 | 34866 ft | 504 kts | 26° |
| 2026-05-10 01:23 | -6.54323 | -143.29497 | 34866 ft | 504 kts | 25° |
| 2026-05-10 01:23 | -6.48050 | -143.26300 | 34866 ft | 503 kts | 25° |
| 2026-05-10 01:24 | -6.41797 | -143.23122 | 34866 ft | 503 kts | 25° |
| 2026-05-10 01:24 | -6.35561 | -143.19955 | 34865 ft | 502 kts | 25° |
| 2026-05-10 01:25 | -6.29317 | -143.16789 | 34867 ft | 502 kts | 25° |
| 2026-05-10 01:25 | -6.23060 | -143.13614 | 34865 ft | 502 kts | 25° |
| 2026-05-10 01:26 | -6.16833 | -143.10458 | 34867 ft | 501 kts | 25° |
| 2026-05-10 01:26 | -6.10604 | -143.07298 | 34866 ft | 501 kts | 25° |
| 2026-05-10 01:27 | -6.04374 | -143.04143 | 34867 ft | 500 kts | 25° |
| 2026-05-10 01:27 | -5.98162 | -143.00995 | 34866 ft | 499 kts | 25° |
| 2026-05-10 01:28 | -5.91973 | -142.97862 | 34865 ft | 498 kts | 25° |
| 2026-05-10 01:28 | -5.85754 | -142.94719 | 34858 ft | 498 kts | 25° |
| 2026-05-10 01:29 | -5.79583 | -142.91608 | 34851 ft | 498 kts | 25° |
| 2026-05-10 01:29 | -5.73378 | -142.88474 | 34845 ft | 497 kts | 25° |
| 2026-05-10 01:30 | -5.67176 | -142.85338 | 34846 ft | 497 kts | 25° |
| 2026-05-10 01:30 | -5.61029 | -142.82227 | 34845 ft | 496 kts | 25° |
| 2026-05-10 01:31 | -5.54848 | -142.79102 | 34846 ft | 496 kts | 25° |
| 2026-05-10 01:31 | -5.48650 | -142.75967 | 34845 ft | 496 kts | 25° |
| 2026-05-10 01:32 | -5.42486 | -142.72852 | 34845 ft | 495 kts | 25° |
| 2026-05-10 01:32 | -5.36333 | -142.69742 | 34846 ft | 495 kts | 25° |
| 2026-05-10 01:33 | -5.30191 | -142.66637 | 34844 ft | 494 kts | 25° |
| 2026-05-10 01:33 | -5.24028 | -142.63522 | 34845 ft | 493 kts | 25° |
| 2026-05-10 01:34 | -5.17913 | -142.60434 | 34845 ft | 493 kts | 25° |
| 2026-05-10 01:34 | -5.11786 | -142.57340 | 34845 ft | 492 kts | 25° |
| 2026-05-10 01:35 | -5.05678 | -142.54254 | 34845 ft | 492 kts | 25° |
| 2026-05-10 01:35 | -4.99537 | -142.51155 | 34949 ft | 493 kts | 24° |
| 2026-05-10 01:36 | -4.96451 | -142.49600 | 35158 ft | 492 kts | 25° |
| 2026-05-10 01:36 | -4.93415 | -142.48074 | 35366 ft | 491 kts | 25° |
| 2026-05-10 01:36 | -4.90359 | -142.46536 | 35543 ft | 490 kts | 25° |
| 2026-05-10 01:36 | -4.87284 | -142.44991 | 35701 ft | 490 kts | 25° |
| 2026-05-10 01:37 | -4.84253 | -142.43472 | 35851 ft | 490 kts | 25° |
| 2026-05-10 01:37 | -4.81184 | -142.41934 | 36002 ft | 489 kts | 25° |
| 2026-05-10 01:37 | -4.78129 | -142.40401 | 36146 ft | 489 kts | 25° |
| 2026-05-10 01:37 | -4.75056 | -142.38856 | 36272 ft | 489 kts | 25° |
| 2026-05-10 01:38 | -4.72008 | -142.37323 | 36391 ft | 488 kts | 25° |
| 2026-05-10 01:38 | -4.68977 | -142.35799 | 36508 ft | 488 kts | 25° |
| 2026-05-10 01:38 | -4.65924 | -142.34259 | 36613 ft | 488 kts | 25° |
| 2026-05-10 01:38 | -4.62889 | -142.32716 | 36706 ft | 488 kts | 25° |
| 2026-05-10 01:39 | -4.56780 | -142.29614 | 36848 ft | 489 kts | 25° |
| 2026-05-10 01:39 | -4.50723 | -142.26553 | 36844 ft | 489 kts | 25° |
| 2026-05-10 01:40 | -4.44621 | -142.23477 | 36847 ft | 488 kts | 25° |
| 2026-05-10 01:40 | -4.38527 | -142.20412 | 36844 ft | 487 kts | 25° |
| 2026-05-10 01:41 | -4.32494 | -142.17375 | 36846 ft | 487 kts | 25° |
| 2026-05-10 01:41 | -4.26415 | -142.14320 | 36841 ft | 486 kts | 25° |
| 2026-05-10 01:42 | -4.20347 | -142.11270 | 36845 ft | 487 kts | 25° |
| 2026-05-10 01:42 | -4.14291 | -142.08226 | 36846 ft | 487 kts | 25° |
| 2026-05-10 01:43 | -4.08250 | -142.05188 | 36848 ft | 486 kts | 25° |
| 2026-05-10 01:43 | -4.02191 | -142.02144 | 36846 ft | 486 kts | 25° |
| 2026-05-10 01:44 | -3.96153 | -141.99110 | 36848 ft | 485 kts | 25° |
| 2026-05-10 01:44 | -3.90112 | -141.96075 | 36845 ft | 485 kts | 25° |
| 2026-05-10 01:45 | -3.84061 | -141.93050 | 36847 ft | 486 kts | 25° |
| 2026-05-10 01:45 | -3.77964 | -141.89999 | 36846 ft | 486 kts | 25° |
| 2026-05-10 01:46 | -3.71917 | -141.86966 | 36848 ft | 485 kts | 25° |
| 2026-05-10 01:46 | -3.65888 | -141.83942 | 36847 ft | 485 kts | 25° |
| 2026-05-10 01:47 | -3.59856 | -141.80916 | 36848 ft | 485 kts | 25° |
| 2026-05-10 01:47 | -3.53801 | -141.77878 | 36846 ft | 486 kts | 25° |
| 2026-05-10 01:48 | -3.47763 | -141.74849 | 36847 ft | 486 kts | 25° |
| 2026-05-10 01:48 | -3.41708 | -141.71809 | 36848 ft | 486 kts | 25° |
| 2026-05-10 01:49 | -3.32637 | -141.67258 | 36847 ft | 485 kts | 25° |
| 2026-05-10 01:50 | -3.26561 | -141.64212 | 36848 ft | 485 kts | 25° |
| 2026-05-10 01:50 | -3.20533 | -141.61188 | 36845 ft | 485 kts | 26° |
| 2026-05-10 01:51 | -3.14494 | -141.58160 | 36852 ft | 486 kts | 26° |
| 2026-05-10 01:51 | -3.08422 | -141.55116 | 36847 ft | 486 kts | 25° |
| 2026-05-10 01:52 | -3.02370 | -141.52083 | 36848 ft | 486 kts | 26° |
| 2026-05-10 01:52 | -2.96315 | -141.49048 | 36847 ft | 486 kts | 26° |
| 2026-05-10 01:53 | -2.90280 | -141.46022 | 36848 ft | 485 kts | 26° |
| 2026-05-10 01:53 | -2.84206 | -141.42992 | 36847 ft | 485 kts | 25° |
| 2026-05-10 01:54 | -2.78145 | -141.39966 | 36843 ft | 485 kts | 26° |
| 2026-05-10 01:54 | -2.72108 | -141.36948 | 36837 ft | 485 kts | 26° |
| 2026-05-10 01:55 | -2.66072 | -141.33920 | 36832 ft | 485 kts | 26° |
| 2026-05-10 01:55 | -2.60050 | -141.30872 | 36831 ft | 485 kts | 26° |
| 2026-05-10 01:56 | -2.54016 | -141.27832 | 36836 ft | 485 kts | 26° |
| 2026-05-10 01:56 | -2.47980 | -141.24803 | 36843 ft | 484 kts | 26° |
| 2026-05-10 01:57 | -2.41982 | -141.21797 | 36845 ft | 484 kts | 26° |
| 2026-05-10 01:57 | -2.35948 | -141.18776 | 36847 ft | 483 kts | 26° |
| 2026-05-10 01:58 | -2.29902 | -141.15749 | 36849 ft | 483 kts | 26° |
| 2026-05-10 01:58 | -2.23913 | -141.12750 | 36846 ft | 483 kts | 26° |
| 2026-05-10 01:59 | -2.17869 | -141.09726 | 36849 ft | 483 kts | 26° |
| 2026-05-10 01:59 | -2.11865 | -141.06720 | 36847 ft | 483 kts | 26° |
| 2026-05-10 02:00 | -2.05842 | -141.03708 | 36847 ft | 483 kts | 26° |
| 2026-05-10 02:00 | -1.99851 | -141.00709 | 36847 ft | 482 kts | 26° |
| 2026-05-10 02:01 | -1.93811 | -140.97687 | 36846 ft | 483 kts | 26° |
| 2026-05-10 02:01 | -1.87821 | -140.94693 | 36847 ft | 482 kts | 26° |
| 2026-05-10 02:02 | -1.81792 | -140.91692 | 36848 ft | 482 kts | 26° |
| 2026-05-10 02:02 | -1.75782 | -140.88695 | 36846 ft | 482 kts | 26° |
| 2026-05-10 02:03 | -1.69757 | -140.85683 | 36846 ft | 482 kts | 26° |
| 2026-05-10 02:03 | -1.63741 | -140.82675 | 36846 ft | 482 kts | 26° |
| 2026-05-10 02:04 | -1.57738 | -140.79672 | 36848 ft | 482 kts | 26° |
| 2026-05-10 02:04 | -1.51721 | -140.76665 | 36843 ft | 481 kts | 26° |
| 2026-05-10 02:05 | -1.45750 | -140.73679 | 36846 ft | 481 kts | 26° |
| 2026-05-10 02:05 | -1.39758 | -140.70682 | 36846 ft | 481 kts | 26° |
| 2026-05-10 02:06 | -1.33772 | -140.67690 | 36845 ft | 481 kts | 26° |
| 2026-05-10 02:06 | -1.27744 | -140.64674 | 36847 ft | 482 kts | 26° |
| 2026-05-10 02:07 | -1.21762 | -140.61684 | 36838 ft | 481 kts | 26° |
| 2026-05-10 02:07 | -1.12775 | -140.57191 | 36834 ft | 480 kts | 26° |
| 2026-05-10 02:08 | -1.06787 | -140.54199 | 36837 ft | 480 kts | 26° |
| 2026-05-10 02:08 | -1.00795 | -140.51204 | 36833 ft | 480 kts | 26° |
| 2026-05-10 02:09 | -0.94842 | -140.48228 | 36837 ft | 481 kts | 26° |
| 2026-05-10 02:09 | -0.88824 | -140.45219 | 36832 ft | 480 kts | 26° |
| 2026-05-10 02:10 | -0.82854 | -140.42250 | 36830 ft | 480 kts | 26° |
| 2026-05-10 02:10 | -0.76861 | -140.39265 | 36831 ft | 480 kts | 26° |
| 2026-05-10 02:11 | -0.70883 | -140.36281 | 36844 ft | 480 kts | 26° |
| 2026-05-10 02:11 | -0.64891 | -140.33273 | 36843 ft | 479 kts | 26° |
| 2026-05-10 02:12 | -0.58955 | -140.30278 | 36848 ft | 479 kts | 26° |
| 2026-05-10 02:12 | -0.52981 | -140.27280 | 36845 ft | 479 kts | 26° |
| 2026-05-10 02:13 | -0.47014 | -140.24295 | 36844 ft | 479 kts | 26° |
| 2026-05-10 02:13 | -0.41050 | -140.21313 | 36847 ft | 480 kts | 26° |
| 2026-05-10 02:14 | -0.35067 | -140.18324 | 36846 ft | 479 kts | 26° |
| 2026-05-10 02:14 | -0.29085 | -140.15335 | 36846 ft | 478 kts | 26° |
| 2026-05-10 02:15 | -0.23116 | -140.12354 | 36848 ft | 478 kts | 26° |
| 2026-05-10 02:15 | -0.17158 | -140.09378 | 36845 ft | 479 kts | 26° |
| 2026-05-10 02:16 | -0.11203 | -140.06404 | 36847 ft | 479 kts | 26° |
| 2026-05-10 02:16 | -0.05214 | -140.03415 | 36846 ft | 480 kts | 26° |
| 2026-05-10 02:17 | 0.00769 | -140.00426 | 36846 ft | 480 kts | 26° |
| 2026-05-10 02:17 | 0.06747 | -139.97427 | 36847 ft | 479 kts | 26° |
| 2026-05-10 02:18 | 0.12719 | -139.94440 | 36848 ft | 479 kts | 26° |
| 2026-05-10 02:18 | 0.18682 | -139.91472 | 36847 ft | 479 kts | 26° |
| 2026-05-10 02:19 | 0.24633 | -139.88503 | 36847 ft | 478 kts | 26° |
| 2026-05-10 02:19 | 0.30616 | -139.85512 | 36847 ft | 478 kts | 26° |
| 2026-05-10 02:20 | 0.36557 | -139.82541 | 36845 ft | 478 kts | 26° |
| 2026-05-10 02:20 | 0.42526 | -139.79555 | 36849 ft | 478 kts | 26° |
| 2026-05-10 02:21 | 0.48513 | -139.76559 | 36844 ft | 478 kts | 26° |
| 2026-05-10 02:21 | 0.54455 | -139.73587 | 36847 ft | 478 kts | 26° |
| 2026-05-10 02:22 | 0.60387 | -139.70619 | 36847 ft | 477 kts | 26° |
| 2026-05-10 02:22 | 0.66366 | -139.67627 | 36847 ft | 477 kts | 26° |
| 2026-05-10 02:23 | 0.72301 | -139.64658 | 36848 ft | 476 kts | 26° |
| 2026-05-10 02:23 | 0.78230 | -139.61691 | 36847 ft | 477 kts | 26° |
| 2026-05-10 02:24 | 0.84175 | -139.58716 | 36847 ft | 477 kts | 26° |
| 2026-05-10 02:24 | 0.90132 | -139.55736 | 36852 ft | 478 kts | 26° |
| 2026-05-10 02:25 | 0.96085 | -139.52757 | 36864 ft | 477 kts | 26° |
| 2026-05-10 02:25 | 1.02037 | -139.49779 | 36865 ft | 477 kts | 26° |
| 2026-05-10 02:26 | 1.07947 | -139.46822 | 36869 ft | 477 kts | 26° |
| 2026-05-10 02:26 | 1.13922 | -139.43837 | 36866 ft | 477 kts | 26° |
| 2026-05-10 02:27 | 1.19856 | -139.40881 | 36866 ft | 477 kts | 26° |
| 2026-05-10 02:27 | 1.25806 | -139.37909 | 36863 ft | 477 kts | 26° |
| 2026-05-10 02:28 | 1.31728 | -139.34947 | 36860 ft | 478 kts | 26° |
| 2026-05-10 02:28 | 1.37680 | -139.31943 | 36861 ft | 478 kts | 27° |
| 2026-05-10 02:29 | 1.43635 | -139.28940 | 36861 ft | 478 kts | 26° |
| 2026-05-10 02:29 | 1.49548 | -139.25969 | 36855 ft | 477 kts | 26° |
| 2026-05-10 02:30 | 1.55507 | -139.22981 | 36850 ft | 477 kts | 26° |
| 2026-05-10 02:30 | 1.61431 | -139.20015 | 36847 ft | 477 kts | 26° |
| 2026-05-10 02:31 | 1.67411 | -139.17020 | 36846 ft | 478 kts | 26° |
| 2026-05-10 02:31 | 1.73347 | -139.14049 | 36847 ft | 477 kts | 26° |
| 2026-05-10 02:32 | 1.79285 | -139.11075 | 36849 ft | 477 kts | 26° |
| 2026-05-10 02:32 | 1.85256 | -139.08084 | 36846 ft | 478 kts | 27° |
| 2026-05-10 02:33 | 1.91180 | -139.05116 | 36847 ft | 477 kts | 27° |
| 2026-05-10 02:33 | 1.97127 | -139.02138 | 36848 ft | 477 kts | 27° |
| 2026-05-10 02:34 | 2.03057 | -138.99167 | 36849 ft | 477 kts | 27° |
| 2026-05-10 02:34 | 2.08998 | -138.96190 | 36845 ft | 477 kts | 27° |
| 2026-05-10 02:35 | 2.14948 | -138.93219 | 36847 ft | 477 kts | 26° |
| 2026-05-10 02:35 | 2.20914 | -138.90243 | 36847 ft | 477 kts | 27° |
| 2026-05-10 02:36 | 2.26837 | -138.87282 | 36848 ft | 477 kts | 27° |
| 2026-05-10 02:36 | 2.32818 | -138.84285 | 36844 ft | 477 kts | 27° |
| 2026-05-10 02:37 | 2.38730 | -138.81323 | 36847 ft | 477 kts | 27° |
| 2026-05-10 02:37 | 2.44708 | -138.78325 | 36844 ft | 478 kts | 27° |
| 2026-05-10 02:38 | 2.50666 | -138.75339 | 36848 ft | 478 kts | 27° |
| 2026-05-10 02:38 | 2.56601 | -138.72363 | 36855 ft | 478 kts | 27° |
| 2026-05-10 02:39 | 2.62561 | -138.69376 | 36861 ft | 478 kts | 27° |
| 2026-05-10 02:39 | 2.68541 | -138.66377 | 36867 ft | 478 kts | 27° |
| 2026-05-10 02:40 | 2.74478 | -138.63399 | 36866 ft | 478 kts | 27° |
| 2026-05-10 02:40 | 2.80447 | -138.60403 | 36868 ft | 478 kts | 27° |
| 2026-05-10 02:41 | 2.86389 | -138.57423 | 36866 ft | 478 kts | 27° |
| 2026-05-10 02:41 | 2.92337 | -138.54440 | 36865 ft | 479 kts | 27° |
| 2026-05-10 02:42 | 2.98306 | -138.51445 | 36867 ft | 479 kts | 27° |
| 2026-05-10 02:42 | 3.04285 | -138.48445 | 36867 ft | 479 kts | 27° |
| 2026-05-10 02:43 | 3.10260 | -138.45447 | 36868 ft | 478 kts | 27° |
| 2026-05-10 02:43 | 3.16200 | -138.42476 | 36864 ft | 478 kts | 26° |
| 2026-05-10 02:44 | 3.22181 | -138.39484 | 36862 ft | 478 kts | 26° |
| 2026-05-10 02:44 | 3.28141 | -138.36493 | 36856 ft | 478 kts | 26° |
| 2026-05-10 02:45 | 3.34080 | -138.33501 | 36859 ft | 479 kts | 27° |
| 2026-05-10 02:45 | 3.40040 | -138.30479 | 36857 ft | 478 kts | 26° |
| 2026-05-10 02:46 | 3.45964 | -138.27499 | 36860 ft | 478 kts | 26° |
| 2026-05-10 02:46 | 3.51915 | -138.24492 | 36852 ft | 478 kts | 27° |
| 2026-05-10 02:47 | 3.57826 | -138.21387 | 36849 ft | 477 kts | 27° |
| 2026-05-10 02:47 | 3.63721 | -138.18280 | 36847 ft | 477 kts | 27° |
| 2026-05-10 02:48 | 3.69603 | -138.15190 | 36847 ft | 477 kts | 27° |
| 2026-05-10 02:48 | 3.75506 | -138.12094 | 36845 ft | 477 kts | 27° |
| 2026-05-10 02:49 | 3.81411 | -138.08998 | 36847 ft | 477 kts | 27° |
| 2026-05-10 02:49 | 3.87321 | -138.05901 | 36847 ft | 476 kts | 27° |
| 2026-05-10 02:50 | 3.93186 | -138.02826 | 36847 ft | 476 kts | 27° |
| 2026-05-10 02:50 | 3.99073 | -137.99738 | 36846 ft | 476 kts | 27° |
| 2026-05-10 02:51 | 4.04932 | -137.96664 | 36846 ft | 476 kts | 27° |
| 2026-05-10 02:51 | 4.10814 | -137.93579 | 36846 ft | 477 kts | 27° |
| 2026-05-10 02:52 | 4.16746 | -137.90483 | 36845 ft | 477 kts | 27° |
| 2026-05-10 02:52 | 4.22644 | -137.87399 | 36854 ft | 477 kts | 27° |
| 2026-05-10 02:53 | 4.28513 | -137.84323 | 36863 ft | 477 kts | 27° |
| 2026-05-10 02:53 | 4.34424 | -137.81221 | 36867 ft | 478 kts | 27° |
| 2026-05-10 02:54 | 4.40315 | -137.78130 | 36864 ft | 479 kts | 27° |
| 2026-05-10 02:54 | 4.46238 | -137.75020 | 36868 ft | 479 kts | 27° |
| 2026-05-10 02:55 | 4.52122 | -137.71930 | 36865 ft | 479 kts | 27° |
| 2026-05-10 02:55 | 4.58061 | -137.68810 | 36868 ft | 479 kts | 27° |
| 2026-05-10 02:56 | 4.63989 | -137.65695 | 36866 ft | 479 kts | 27° |
| 2026-05-10 02:56 | 4.69885 | -137.62595 | 36868 ft | 479 kts | 27° |
| 2026-05-10 02:57 | 4.75778 | -137.59499 | 36867 ft | 480 kts | 27° |
| 2026-05-10 02:57 | 4.81706 | -137.56383 | 36867 ft | 480 kts | 27° |
| 2026-05-10 02:58 | 4.90598 | -137.51708 | 36868 ft | 482 kts | 27° |
| 2026-05-10 02:59 | 4.96573 | -137.48564 | 36866 ft | 481 kts | 27° |
| 2026-05-10 02:59 | 5.02502 | -137.45445 | 36867 ft | 481 kts | 27° |
| 2026-05-10 03:00 | 5.08397 | -137.42343 | 36861 ft | 480 kts | 27° |
| 2026-05-10 03:00 | 5.14358 | -137.39215 | 36861 ft | 480 kts | 27° |
| 2026-05-10 03:01 | 5.20281 | -137.36112 | 36857 ft | 481 kts | 27° |
| 2026-05-10 03:01 | 5.26230 | -137.32971 | 36858 ft | 481 kts | 28° |
| 2026-05-10 03:02 | 5.32144 | -137.29829 | 36853 ft | 482 kts | 28° |
| 2026-05-10 03:02 | 5.38079 | -137.26691 | 36857 ft | 481 kts | 28° |
| 2026-05-10 03:03 | 5.44031 | -137.23550 | 36857 ft | 483 kts | 28° |
| 2026-05-10 03:03 | 5.52977 | -137.18832 | 36867 ft | 483 kts | 28° |
| 2026-05-10 03:04 | 5.58950 | -137.15685 | 36869 ft | 484 kts | 28° |
| 2026-05-10 03:04 | 5.64915 | -137.12538 | 36867 ft | 484 kts | 28° |
| 2026-05-10 03:05 | 5.70862 | -137.09401 | 36868 ft | 484 kts | 28° |
| 2026-05-10 03:05 | 5.76862 | -137.06236 | 36867 ft | 484 kts | 28° |
| 2026-05-10 03:06 | 5.82821 | -137.03091 | 36868 ft | 484 kts | 28° |
| 2026-05-10 03:06 | 5.88790 | -136.99940 | 36867 ft | 485 kts | 28° |
| 2026-05-10 03:07 | 5.94748 | -136.96794 | 36870 ft | 485 kts | 28° |
| 2026-05-10 03:07 | 6.00725 | -136.93639 | 36869 ft | 485 kts | 28° |
| 2026-05-10 03:08 | 6.06713 | -136.90477 | 36867 ft | 484 kts | 28° |
| 2026-05-10 03:08 | 6.12670 | -136.87334 | 36863 ft | 485 kts | 28° |
| 2026-05-10 03:09 | 6.18657 | -136.84184 | 36853 ft | 486 kts | 28° |
| 2026-05-10 03:09 | 6.24671 | -136.81015 | 36850 ft | 487 kts | 28° |
| 2026-05-10 03:10 | 6.30668 | -136.77847 | 36848 ft | 487 kts | 28° |
| 2026-05-10 03:10 | 6.36681 | -136.74667 | 36852 ft | 486 kts | 28° |
| 2026-05-10 03:11 | 6.42659 | -136.71504 | 36856 ft | 486 kts | 28° |
| 2026-05-10 03:11 | 6.48651 | -136.68333 | 36859 ft | 486 kts | 28° |
| 2026-05-10 03:12 | 6.54662 | -136.65150 | 36865 ft | 487 kts | 28° |
| 2026-05-10 03:12 | 6.60669 | -136.61971 | 36866 ft | 488 kts | 28° |
| 2026-05-10 03:13 | 6.66680 | -136.58787 | 36867 ft | 488 kts | 28° |
| 2026-05-10 03:13 | 6.72714 | -136.55592 | 36868 ft | 488 kts | 28° |
| 2026-05-10 03:14 | 6.78739 | -136.52399 | 36869 ft | 488 kts | 28° |
| 2026-05-10 03:14 | 6.84751 | -136.49213 | 36869 ft | 488 kts | 29° |
| 2026-05-10 03:15 | 6.90728 | -136.46042 | 36869 ft | 487 kts | 28° |
| 2026-05-10 03:15 | 6.96751 | -136.42848 | 36868 ft | 487 kts | 28° |
| 2026-05-10 03:16 | 7.02767 | -136.39656 | 36868 ft | 488 kts | 28° |
| 2026-05-10 03:16 | 7.08747 | -136.36482 | 36867 ft | 488 kts | 28° |
| 2026-05-10 03:17 | 7.14788 | -136.33276 | 36866 ft | 489 kts | 29° |
| 2026-05-10 03:17 | 7.20792 | -136.30072 | 36867 ft | 489 kts | 29° |
| 2026-05-10 03:18 | 7.26810 | -136.26865 | 36868 ft | 488 kts | 28° |
| 2026-05-10 03:18 | 7.32846 | -136.23653 | 36866 ft | 488 kts | 28° |
| 2026-05-10 03:19 | 7.38852 | -136.20459 | 36869 ft | 488 kts | 28° |
| 2026-05-10 03:19 | 7.44872 | -136.17258 | 36867 ft | 488 kts | 28° |
| 2026-05-10 03:20 | 7.50884 | -136.14061 | 36868 ft | 489 kts | 28° |
| 2026-05-10 03:20 | 7.56901 | -136.10860 | 36870 ft | 489 kts | 29° |
| 2026-05-10 03:21 | 7.62917 | -136.07660 | 36878 ft | 489 kts | 28° |
| 2026-05-10 03:21 | 7.68962 | -136.04439 | 36876 ft | 489 kts | 28° |
| 2026-05-10 03:22 | 7.74984 | -136.01231 | 36885 ft | 489 kts | 28° |
| 2026-05-10 03:22 | 7.80985 | -135.98036 | 36883 ft | 489 kts | 28° |
| 2026-05-10 03:23 | 7.87019 | -135.94820 | 36885 ft | 489 kts | 28° |
| 2026-05-10 03:23 | 7.93046 | -135.91606 | 36886 ft | 490 kts | 28° |
| 2026-05-10 03:24 | 7.99057 | -135.88403 | 36887 ft | 491 kts | 28° |
| 2026-05-10 03:24 | 8.05117 | -135.85170 | 36885 ft | 492 kts | 28° |
| 2026-05-10 03:25 | 8.11167 | -135.81941 | 36885 ft | 493 kts | 28° |
| 2026-05-10 03:25 | 8.17270 | -135.78700 | 36887 ft | 493 kts | 28° |
| 2026-05-10 03:26 | 8.23332 | -135.75475 | 36884 ft | 493 kts | 28° |
| 2026-05-10 03:26 | 8.29415 | -135.72231 | 36887 ft | 494 kts | 28° |
| 2026-05-10 03:27 | 8.35511 | -135.68973 | 36884 ft | 495 kts | 28° |
| 2026-05-10 03:27 | 8.41606 | -135.65715 | 36889 ft | 495 kts | 28° |
| 2026-05-10 03:28 | 8.47701 | -135.62456 | 36885 ft | 496 kts | 28° |
| 2026-05-10 03:28 | 8.53806 | -135.59190 | 36886 ft | 497 kts | 28° |
| 2026-05-10 03:29 | 8.59947 | -135.55905 | 36885 ft | 498 kts | 28° |
| 2026-05-10 03:29 | 8.66061 | -135.52634 | 36880 ft | 498 kts | 28° |
| 2026-05-10 03:30 | 8.72190 | -135.49352 | 36873 ft | 497 kts | 28° |
| 2026-05-10 03:30 | 8.78291 | -135.46081 | 36874 ft | 497 kts | 28° |
| 2026-05-10 03:31 | 8.84377 | -135.42819 | 36865 ft | 497 kts | 28° |
| 2026-05-10 03:31 | 8.90515 | -135.39529 | 36869 ft | 497 kts | 28° |
| 2026-05-10 03:32 | 8.96616 | -135.36258 | 36869 ft | 497 kts | 28° |
| 2026-05-10 03:32 | 9.02748 | -135.32954 | 36875 ft | 497 kts | 28° |
| 2026-05-10 03:33 | 9.08841 | -135.29654 | 36874 ft | 498 kts | 28° |
| 2026-05-10 03:33 | 9.14975 | -135.26356 | 36880 ft | 497 kts | 28° |
| 2026-05-10 03:34 | 9.21060 | -135.23097 | 36891 ft | 497 kts | 28° |
| 2026-05-10 03:34 | 9.27184 | -135.19810 | 36889 ft | 497 kts | 28° |
| 2026-05-10 03:35 | 9.33310 | -135.16518 | 36893 ft | 497 kts | 28° |
| 2026-05-10 03:35 | 9.39435 | -135.13225 | 36891 ft | 497 kts | 28° |
| 2026-05-10 03:36 | 9.45552 | -135.09935 | 36892 ft | 497 kts | 28° |
| 2026-05-10 03:36 | 9.51638 | -135.06659 | 36892 ft | 498 kts | 28° |
| 2026-05-10 03:37 | 9.57778 | -135.03354 | 36893 ft | 498 kts | 28° |
| 2026-05-10 03:37 | 9.63931 | -135.00040 | 36889 ft | 499 kts | 28° |
| 2026-05-10 03:38 | 9.70037 | -134.96750 | 36891 ft | 499 kts | 28° |
| 2026-05-10 03:38 | 9.76177 | -134.93439 | 36891 ft | 499 kts | 28° |
| 2026-05-10 03:39 | 9.82306 | -134.90131 | 36888 ft | 498 kts | 28° |
| 2026-05-10 03:39 | 9.88452 | -134.86815 | 36892 ft | 499 kts | 28° |
| 2026-05-10 03:40 | 9.94583 | -134.83505 | 36888 ft | 499 kts | 28° |
| 2026-05-10 03:40 | 10.00687 | -134.80209 | 36889 ft | 500 kts | 28° |
| 2026-05-10 03:41 | 10.06856 | -134.76877 | 36880 ft | 500 kts | 28° |
| 2026-05-10 03:41 | 10.12972 | -134.73576 | 36890 ft | 499 kts | 28° |
| 2026-05-10 03:42 | 10.19135 | -134.70261 | 36887 ft | 499 kts | 28° |
| 2026-05-10 03:42 | 10.25266 | -134.66952 | 36884 ft | 500 kts | 28° |
| 2026-05-10 03:43 | 10.31424 | -134.63621 | 36892 ft | 500 kts | 28° |
| 2026-05-10 03:43 | 10.37558 | -134.60301 | 36891 ft | 501 kts | 28° |